Terminal Aerodrome Forecast
Issued by NWS

Home | Current Version | Previous Version | Graphics & Text | Print | Product List | Glossary On
Versions: 1 2 3 4 5 6 7 8 9 10 11 12 13 14
000
FTUS42 KMHX 251128
TAFOAJ
TAF
KOAJ 251128Z 2512/2612 21007KT P6SM -RA SCT050 OVC100
     FM251800 20010KT 5SM -RA BR SCT007 OVC020
     FM252200 19005KT 3SM -RA BR BKN007 OVC015
     FM260300 VRB03KT 5SM BR VCSH OVC004
      AMD LTD TO CLD VIS AND WIND=

USA.gov is the U.S. government's official web portal to all federal, state and local government web resources and services.